createdAt,value
2023-05-29T00:01:42.487Z,102134.56
2023-05-29T00:04:09.540Z,102137.31
2023-05-29T00:06:37.422Z,102132.63
2023-05-29T00:09:05.172Z,102134.69
2023-05-29T00:11:31.918Z,102138.94
2023-05-29T00:13:58.619Z,102136.53
2023-05-29T00:16:25.322Z,102124.13
2023-05-29T00:18:54.875Z,102106.00
2023-05-29T00:21:21.690Z,102122.91
2023-05-29T00:23:48.898Z,102116.47
2023-05-29T00:26:17.887Z,102142.06
2023-05-29T00:28:47.973Z,102131.91
2023-05-29T00:31:14.856Z,102136.72
2023-05-29T00:33:41.487Z,102131.97
2023-05-29T00:36:09.268Z,102154.66
2023-05-29T00:38:35.945Z,102131.72
2023-05-29T00:41:03.736Z,102065.22
2023-05-29T00:43:30.432Z,102152.38
2023-05-29T00:45:57.120Z,102167.63
2023-05-29T00:48:24.345Z,102167.63
2023-05-29T00:50:52.021Z,102164.91
2023-05-29T00:53:19.390Z,102091.19
2023-05-29T00:55:46.267Z,102169.16
2023-05-29T00:58:12.890Z,102148.69
2023-05-29T01:00:39.999Z,102150.91
2023-05-29T01:03:07.626Z,102180.97
2023-05-29T01:05:36.996Z,102179.72
2023-05-29T01:08:04.363Z,102182.31
2023-05-29T01:10:32.335Z,102184.03
2023-05-29T01:13:24.536Z,102191.19
2023-05-29T01:16:12.057Z,102197.03
2023-05-29T01:18:52.649Z,102178.19
2023-05-29T01:21:56.860Z,102203.16
2023-05-29T01:24:55.241Z,102194.94
2023-05-29T01:27:26.471Z,102049.16
2023-05-29T01:29:54.746Z,102192.03
2023-05-29T01:32:22.272Z,102199.34
2023-05-29T01:34:48.965Z,102177.16
2023-05-29T01:37:15.593Z,102187.16
2023-05-29T01:39:42.442Z,102178.06
2023-05-29T01:42:09.780Z,102196.34
2023-05-29T01:44:38.966Z,102165.00
2023-05-29T01:47:07.083Z,102201.16
2023-05-29T01:49:37.484Z,102201.22
2023-05-29T01:52:04.512Z,102175.03
2023-05-29T01:54:31.260Z,102201.28
2023-05-29T01:56:58.526Z,102200.63
2023-05-29T01:59:28.853Z,102041.81
2023-05-29T02:01:55.735Z,102205.38
2023-05-29T02:04:22.819Z,102204.19
2023-05-29T02:06:49.485Z,102167.25
2023-05-29T02:09:18.170Z,102204.09
2023-05-29T02:11:46.739Z,102207.41
2023-05-29T02:14:13.878Z,102205.06
2023-05-29T02:16:42.211Z,102182.03
2023-05-29T02:19:09.320Z,102210.50
2023-05-29T02:21:39.417Z,102211.19
2023-05-29T02:24:07.642Z,102203.69
2023-05-29T02:26:35.033Z,102200.00
2023-05-29T02:29:01.598Z,102204.59
2023-05-29T02:31:28.411Z,102181.56
2023-05-29T02:33:55.081Z,102196.56
2023-05-29T02:36:22.982Z,102198.34
2023-05-29T02:38:52.520Z,102191.94
2023-05-29T02:41:19.169Z,102197.94
2023-05-29T02:43:45.767Z,102188.53
2023-05-29T02:46:12.493Z,102151.44
2023-05-29T02:48:39.247Z,102197.97
2023-05-29T02:51:06.101Z,102193.28
2023-05-29T02:53:32.758Z,102196.94
2023-05-29T02:55:59.564Z,102146.03
2023-05-29T02:58:26.175Z,102171.72
2023-05-29T03:00:53.656Z,102203.41
2023-05-29T03:03:20.385Z,102160.66
2023-05-29T03:05:47.900Z,102198.31
2023-05-29T03:08:14.954Z,102201.81
2023-05-29T03:10:44.852Z,102192.50
2023-05-29T03:13:11.644Z,102173.81
2023-05-29T03:15:49.736Z,102197.09
2023-05-29T03:18:17.535Z,102196.03
2023-05-29T03:20:44.208Z,102189.34
2023-05-29T03:23:11.422Z,102078.28
2023-05-29T03:25:38.078Z,102196.84
2023-05-29T03:28:04.689Z,102204.66
2023-05-29T03:30:32.161Z,102200.06
2023-05-29T03:33:04.323Z,102211.00
2023-05-29T03:35:49.576Z,102160.47
2023-05-29T03:38:16.221Z,102194.19
2023-05-29T03:40:42.972Z,102143.94
2023-05-29T03:43:09.763Z,102217.16
2023-05-29T03:45:36.355Z,102215.50
2023-05-29T03:48:03.180Z,102194.41
2023-05-29T03:50:30.617Z,102201.38
2023-05-29T03:52:57.276Z,102100.75
2023-05-29T03:55:24.078Z,102217.22
2023-05-29T03:57:50.870Z,102211.75
2023-05-29T04:00:17.772Z,102220.63
2023-05-29T04:02:49.510Z,102215.06
2023-05-29T04:05:16.403Z,102217.94
2023-05-29T04:07:43.037Z,102224.44
2023-05-29T04:10:10.269Z,102219.00
2023-05-29T04:12:36.811Z,102227.59
2023-05-29T04:15:04.162Z,102226.34
2023-05-29T04:17:30.997Z,102231.66
2023-05-29T04:19:58.341Z,102221.47
2023-05-29T04:22:25.359Z,102216.47
2023-05-29T04:24:52.002Z,102220.56
2023-05-29T04:27:19.049Z,102225.50
2023-05-29T04:29:45.591Z,102237.69
2023-05-29T04:32:14.255Z,102240.06
2023-05-29T04:34:41.076Z,102246.72
2023-05-29T04:37:08.480Z,102220.09
2023-05-29T04:39:35.176Z,102252.28
2023-05-29T04:42:02.007Z,102224.91
2023-05-29T04:44:30.204Z,102239.53
2023-05-29T04:46:59.719Z,102245.94
2023-05-29T04:49:26.368Z,102216.00
2023-05-29T04:51:54.623Z,102247.53
2023-05-29T04:54:23.445Z,102244.13
2023-05-29T04:56:53.396Z,102243.94
2023-05-29T04:59:24.102Z,102218.75
2023-05-29T05:01:51.290Z,102258.50
2023-05-29T05:04:18.950Z,102266.16
2023-05-29T05:06:45.971Z,102263.41
2023-05-29T05:09:15.023Z,102268.72
2023-05-29T05:11:42.518Z,102266.22
2023-05-29T05:14:09.075Z,102267.25
2023-05-29T05:16:36.452Z,102270.25
2023-05-29T05:19:04.016Z,102221.56
2023-05-29T05:21:33.988Z,102270.50
2023-05-29T05:24:02.913Z,102247.81
2023-05-29T05:26:31.428Z,102269.53
2023-05-29T05:28:58.221Z,102219.34
2023-05-29T05:31:28.121Z,102006.88
2023-05-29T05:33:54.820Z,102133.59
2023-05-29T05:36:22.354Z,102187.44
2023-05-29T05:38:54.961Z,102274.94
2023-05-29T05:41:22.634Z,102204.13
2023-05-29T05:43:50.859Z,102265.91
2023-05-29T05:46:26.624Z,102268.81
2023-05-29T05:48:58.134Z,102269.22
2023-05-29T05:51:25.752Z,102120.19
2023-05-29T05:53:52.652Z,102060.13
2023-05-29T05:56:20.005Z,102260.28
2023-05-29T05:58:46.873Z,102264.25
2023-05-29T06:01:14.026Z,102268.03
2023-05-29T06:03:41.281Z,102273.06
2023-05-29T06:06:11.194Z,102276.94
2023-05-29T06:08:42.588Z,102228.09
2023-05-29T06:11:09.623Z,102280.66
2023-05-29T06:13:38.343Z,102276.47
2023-05-29T06:16:09.410Z,102146.31
2023-05-29T06:18:36.747Z,102271.56
2023-05-29T06:21:03.966Z,102253.19
2023-05-29T06:23:31.166Z,102264.47
2023-05-29T06:25:57.831Z,102278.25
2023-05-29T06:28:25.135Z,102273.25
2023-05-29T06:30:52.102Z,102269.41
2023-05-29T06:33:19.000Z,102281.31
2023-05-29T06:35:46.804Z,102273.28
2023-05-29T06:38:13.446Z,102269.59
2023-05-29T06:40:40.300Z,102267.75
2023-05-29T06:43:07.132Z,102245.63
2023-05-29T06:45:47.887Z,102248.22
2023-05-29T06:48:14.554Z,102273.09
2023-05-29T06:50:42.527Z,102271.53
2023-05-29T06:53:29.468Z,102268.84
2023-05-29T06:55:57.121Z,102284.78
2023-05-29T06:58:23.929Z,102278.84
2023-05-29T07:00:51.060Z,102274.19
2023-05-29T07:03:47.906Z,102282.09
2023-05-29T07:06:14.732Z,102287.56
2023-05-29T07:08:41.677Z,102274.28
2023-05-29T07:11:08.287Z,102295.00
2023-05-29T07:13:35.107Z,102301.47
2023-05-29T07:16:10.378Z,102298.31
2023-05-29T07:18:48.976Z,102313.00
2023-05-29T07:21:18.353Z,102274.22
2023-05-29T07:23:45.026Z,102301.22
2023-05-29T07:26:14.168Z,102299.69
2023-05-29T07:28:41.034Z,102295.50
2023-05-29T07:31:08.922Z,102310.00
2023-05-29T07:33:35.994Z,102308.47
2023-05-29T07:36:03.015Z,102289.28
2023-05-29T07:38:29.934Z,102278.69
2023-05-29T07:40:58.860Z,102272.09
2023-05-29T07:43:37.228Z,102212.97
2023-05-29T07:46:07.238Z,102298.25
2023-05-29T07:48:35.631Z,102267.41
2023-05-29T07:51:03.697Z,102291.75
2023-05-29T07:53:34.865Z,102291.56
2023-05-29T07:56:02.021Z,102288.44
2023-05-29T07:58:29.578Z,102278.16
2023-05-29T08:00:56.625Z,102255.78
2023-05-29T08:03:23.651Z,102287.63
2023-05-29T08:06:06.708Z,102290.16
2023-05-29T08:08:34.898Z,102270.38
2023-05-29T08:11:01.844Z,102310.16
2023-05-29T08:13:31.914Z,102301.50
2023-05-29T08:15:59.600Z,102300.97
2023-05-29T08:18:27.354Z,102307.03
2023-05-29T08:20:54.281Z,102295.94
2023-05-29T08:23:21.818Z,102291.31
2023-05-29T08:25:48.958Z,102275.03
2023-05-29T08:28:15.953Z,102291.41
2023-05-29T08:30:42.877Z,102294.97
2023-05-29T08:33:09.914Z,102289.13
2023-05-29T08:35:37.525Z,102281.31
2023-05-29T08:38:04.137Z,102295.38
2023-05-29T08:40:31.258Z,102286.19
2023-05-29T08:42:59.440Z,102286.72
2023-05-29T08:45:26.350Z,102275.44
2023-05-29T08:47:55.215Z,102287.53
2023-05-29T08:50:22.354Z,102276.66
2023-05-29T08:52:49.105Z,102296.31
2023-05-29T08:55:15.978Z,102277.75
2023-05-29T08:57:44.368Z,102273.38
2023-05-29T09:00:16.472Z,102259.69
2023-05-29T09:02:47.161Z,102279.34
2023-05-29T09:05:14.367Z,102290.06
2023-05-29T09:07:42.156Z,102301.00
2023-05-29T09:10:12.805Z,102305.53
2023-05-29T09:12:40.799Z,102280.78
2023-05-29T09:15:21.802Z,102278.56
2023-05-29T09:17:53.392Z,102298.53
2023-05-29T09:20:24.778Z,102301.50
2023-05-29T09:22:55.277Z,102300.34
2023-05-29T09:25:24.917Z,102300.75
2023-05-29T09:27:54.149Z,102293.19
2023-05-29T09:30:36.253Z,102292.31
2023-05-29T09:33:04.278Z,102272.59
2023-05-29T09:35:44.790Z,102296.00
2023-05-29T09:38:24.780Z,102298.53
2023-05-29T09:41:06.997Z,102306.28
2023-05-29T09:43:34.938Z,102234.00
2023-05-29T09:46:02.804Z,102295.09
2023-05-29T09:48:31.430Z,102290.81
2023-05-29T09:50:59.436Z,102308.50
2023-05-29T09:53:27.410Z,102234.81
2023-05-29T09:55:55.822Z,102300.59
2023-05-29T09:58:23.823Z,102298.97
2023-05-29T10:00:52.790Z,102217.47
2023-05-29T10:03:22.467Z,102286.19
2023-05-29T10:05:58.028Z,102271.19
2023-05-29T10:08:26.988Z,102258.44
2023-05-29T10:11:00.320Z,102240.41
2023-05-29T10:13:30.333Z,102158.78
2023-05-29T10:15:59.191Z,102257.94
2023-05-29T10:18:33.363Z,102219.94
2023-05-29T10:21:02.739Z,102283.19
2023-05-29T10:23:31.602Z,102278.34
2023-05-29T10:26:06.399Z,102272.00
2023-05-29T10:28:34.615Z,102266.59
2023-05-29T10:31:11.843Z,102270.91
2023-05-29T10:33:46.077Z,102257.19
2023-05-29T10:36:19.953Z,102229.34
2023-05-29T10:38:47.893Z,102265.41
2023-05-29T10:41:29.999Z,102262.16
2023-05-29T10:44:01.127Z,102241.63
2023-05-29T10:47:00.364Z,102263.69
2023-05-29T10:49:27.600Z,102255.41
2023-05-29T10:51:54.115Z,102259.06
2023-05-29T10:54:25.246Z,102275.38
2023-05-29T10:57:02.153Z,102268.56
2023-05-29T10:59:29.529Z,102252.69
2023-05-29T11:01:58.545Z,102238.69
2023-05-29T11:04:29.095Z,102235.72
2023-05-29T11:06:56.188Z,102239.75
2023-05-29T11:09:40.317Z,102251.41
2023-05-29T11:12:11.761Z,102237.44
2023-05-29T11:14:48.879Z,102246.53
2023-05-29T11:17:44.777Z,102242.34
2023-05-29T11:20:38.700Z,102238.50
2023-05-29T11:23:13.664Z,102246.19
2023-05-29T11:25:40.284Z,102246.78
2023-05-29T11:28:11.658Z,102244.06
2023-05-29T11:30:45.843Z,102220.91
2023-05-29T11:33:29.708Z,102220.91
2023-05-29T11:36:01.837Z,102227.06
2023-05-29T11:38:29.640Z,102211.34
2023-05-29T11:40:57.032Z,102221.97
2023-05-29T11:43:24.056Z,102203.91
2023-05-29T11:45:50.713Z,102220.66
2023-05-29T11:48:17.590Z,102230.59
2023-05-29T11:50:47.266Z,102192.41
2023-05-29T11:53:13.912Z,102224.13
2023-05-29T11:55:40.913Z,102215.00
2023-05-29T11:58:07.652Z,102212.13
2023-05-29T12:00:36.945Z,102225.34
2023-05-29T12:03:05.309Z,102229.53
2023-05-29T12:05:54.477Z,102210.13
2023-05-29T12:08:26.351Z,102212.66
2023-05-29T12:10:54.093Z,102208.75
2023-05-29T12:13:21.380Z,102216.16
2023-05-29T12:15:50.329Z,102226.94
2023-05-29T12:18:17.214Z,102216.72
2023-05-29T12:20:43.852Z,102195.91
2023-05-29T12:23:13.244Z,102197.78
2023-05-29T12:25:40.324Z,102197.13
2023-05-29T12:28:07.195Z,102200.31
2023-05-29T12:30:39.301Z,102196.44
2023-05-29T12:33:07.637Z,102203.19
2023-05-29T12:35:34.511Z,102215.50
2023-05-29T12:38:02.231Z,102211.13
2023-05-29T12:40:37.752Z,102216.25
2023-05-29T12:43:06.974Z,102202.84
2023-05-29T12:45:35.091Z,102182.78
2023-05-29T12:48:04.593Z,102197.59
2023-05-29T12:50:33.303Z,102173.22
2023-05-29T12:53:05.413Z,102187.88
2023-05-29T12:55:39.742Z,102187.38
2023-05-29T12:58:11.353Z,102174.94
2023-05-29T13:00:44.538Z,102188.06
2023-05-29T13:03:12.465Z,102165.91
2023-05-29T13:05:39.894Z,102183.16
2023-05-29T13:08:08.853Z,102196.13
2023-05-29T13:10:36.021Z,102183.09
2023-05-29T13:13:02.820Z,102183.66
2023-05-29T13:15:29.742Z,102184.56
2023-05-29T13:17:56.660Z,102171.28
2023-05-29T13:20:23.345Z,102176.53
2023-05-29T13:22:50.159Z,102160.47
2023-05-29T13:25:18.400Z,102176.94
2023-05-29T13:27:46.863Z,102184.03
2023-05-29T13:30:14.960Z,102181.78
2023-05-29T13:32:42.915Z,102193.34
2023-05-29T13:35:09.678Z,102192.34
2023-05-29T13:37:40.167Z,102160.13
2023-05-29T13:40:10.311Z,102162.34
2023-05-29T13:42:39.449Z,102190.69
2023-05-29T13:45:08.350Z,102201.00
2023-05-29T13:47:36.109Z,102189.91
2023-05-29T13:50:03.678Z,102187.19
2023-05-29T13:52:30.432Z,102178.66
2023-05-29T13:54:59.071Z,102149.13
2023-05-29T13:57:25.765Z,102178.13
2023-05-29T13:59:52.345Z,102173.75
2023-05-29T14:02:19.228Z,102167.34
2023-05-29T14:04:45.808Z,102175.63
2023-05-29T14:07:12.423Z,102177.50
2023-05-29T14:09:39.157Z,102121.47
2023-05-29T14:12:06.798Z,102164.34
2023-05-29T14:14:34.825Z,102171.41
2023-05-29T14:17:01.822Z,102156.41
2023-05-29T14:19:28.308Z,102168.88
2023-05-29T14:21:54.872Z,102153.78
2023-05-29T14:24:21.483Z,102159.13
2023-05-29T14:26:48.535Z,102135.78
2023-05-29T14:29:16.049Z,102150.72
2023-05-29T14:31:44.816Z,102164.88
2023-05-29T14:34:12.721Z,102158.03
2023-05-29T14:36:39.515Z,102166.13
2023-05-29T14:39:06.908Z,102168.00
2023-05-29T14:41:35.974Z,102141.69
2023-05-29T14:44:02.611Z,102141.47
2023-05-29T14:46:32.614Z,102145.41
2023-05-29T14:49:02.692Z,102133.00
2023-05-29T14:51:29.575Z,102145.09
2023-05-29T14:53:56.410Z,102160.53
2023-05-29T14:56:23.146Z,102153.72
2023-05-29T14:58:49.996Z,102150.06
2023-05-29T15:01:18.345Z,102138.97
2023-05-29T15:03:46.500Z,102156.00
2023-05-29T15:06:13.690Z,102137.72
2023-05-29T15:08:41.168Z,102152.78
2023-05-29T15:11:08.758Z,102153.00
2023-05-29T15:13:35.355Z,102149.41
2023-05-29T15:16:04.159Z,102144.09
2023-05-29T15:18:31.603Z,102145.41
2023-05-29T15:20:58.890Z,102133.13
2023-05-29T15:23:28.685Z,102149.63
2023-05-29T15:25:55.873Z,102127.66
2023-05-29T15:28:22.848Z,102130.47
2023-05-29T15:30:49.876Z,102157.59
2023-05-29T15:33:16.634Z,102166.09
2023-05-29T15:35:43.786Z,102155.88
2023-05-29T15:38:13.628Z,102119.47
2023-05-29T15:40:44.079Z,102152.78
2023-05-29T15:43:10.921Z,102147.72
2023-05-29T15:45:38.296Z,102125.41
2023-05-29T15:48:05.706Z,102153.00
2023-05-29T15:50:32.777Z,102147.78
2023-05-29T15:52:59.312Z,102150.03
2023-05-29T15:55:26.063Z,102152.47
2023-05-29T15:57:52.834Z,102121.25
2023-05-29T16:00:19.735Z,102143.84
2023-05-29T16:02:46.357Z,102134.72
2023-05-29T16:05:13.353Z,102147.72
2023-05-29T16:07:40.580Z,102144.84
2023-05-29T16:10:07.640Z,102156.66
2023-05-29T16:12:34.524Z,102150.16
2023-05-29T16:15:01.700Z,102147.50
2023-05-29T16:17:28.908Z,102153.81
2023-05-29T16:19:57.112Z,102155.97
2023-05-29T16:22:39.950Z,102153.66
2023-05-29T16:25:09.559Z,102149.13
2023-05-29T16:27:36.844Z,102127.16
2023-05-29T16:30:03.673Z,102157.47
2023-05-29T16:32:31.075Z,102139.91
2023-05-29T16:35:01.086Z,102139.69
2023-05-29T16:37:28.227Z,102157.72
2023-05-29T16:39:54.966Z,102159.00
2023-05-29T16:42:24.008Z,102154.38
2023-05-29T16:44:53.114Z,102165.06
2023-05-29T16:47:20.638Z,102141.84
2023-05-29T16:49:47.407Z,102160.84
2023-05-29T16:52:20.343Z,102164.91
2023-05-29T16:54:48.606Z,102131.75
2023-05-29T16:57:15.815Z,102160.59
2023-05-29T16:59:42.341Z,102154.72
2023-05-29T17:02:08.989Z,102146.97
2023-05-29T17:04:37.002Z,102159.22
2023-05-29T17:07:04.746Z,102160.53
2023-05-29T17:09:31.917Z,102158.88
2023-05-29T17:11:58.926Z,102143.19
2023-05-29T17:14:25.835Z,102155.66
2023-05-29T17:16:52.511Z,102130.81
2023-05-29T17:19:19.575Z,102147.44
2023-05-29T17:21:48.035Z,102158.03
2023-05-29T17:24:17.695Z,102152.75
2023-05-29T17:26:44.494Z,102165.56
2023-05-29T17:29:12.322Z,102117.69
2023-05-29T17:31:39.999Z,102148.50
2023-05-29T17:34:06.658Z,102164.19
2023-05-29T17:36:33.761Z,102153.94
2023-05-29T17:39:00.590Z,102166.97
2023-05-29T17:41:27.983Z,102144.47
2023-05-29T17:43:55.115Z,102142.19
2023-05-29T17:46:22.643Z,102150.59
2023-05-29T17:48:49.520Z,102137.94
2023-05-29T17:51:17.171Z,102161.38
2023-05-29T17:53:44.500Z,102154.38
2023-05-29T17:56:12.180Z,102166.75
2023-05-29T17:58:39.025Z,102142.09
2023-05-29T18:01:05.719Z,102170.91
2023-05-29T18:03:32.426Z,102161.47
2023-05-29T18:05:59.152Z,102173.06
2023-05-29T18:08:28.104Z,102164.41
2023-05-29T18:10:54.745Z,102169.34
2023-05-29T18:13:21.377Z,102178.56
2023-05-29T18:15:48.268Z,102163.31
2023-05-29T18:18:15.244Z,102175.59
2023-05-29T18:20:42.074Z,102165.28
2023-05-29T18:23:08.972Z,102167.53
2023-05-29T18:25:36.313Z,102177.09
2023-05-29T18:28:04.437Z,102164.63
2023-05-29T18:30:31.703Z,102169.09
2023-05-29T18:33:01.845Z,102149.97
2023-05-29T18:35:28.858Z,102182.63
2023-05-29T18:37:55.456Z,102177.78
2023-05-29T18:40:22.071Z,102174.38
2023-05-29T18:42:48.731Z,102188.19
2023-05-29T18:45:15.487Z,102186.72
2023-05-29T18:47:44.531Z,102187.34
2023-05-29T18:50:13.116Z,102150.81
2023-05-29T18:52:40.890Z,102195.41
2023-05-29T18:55:08.062Z,102171.38
2023-05-29T18:57:34.525Z,102190.31
2023-05-29T19:00:01.115Z,102166.72
2023-05-29T19:02:28.052Z,102171.47
2023-05-29T19:04:54.962Z,102186.09
2023-05-29T19:07:21.544Z,102176.75
2023-05-29T19:09:48.706Z,102204.56
2023-05-29T19:12:15.212Z,102206.66
2023-05-29T19:14:41.846Z,102174.09
2023-05-29T19:17:10.706Z,102208.09
2023-05-29T19:19:37.420Z,102209.34
2023-05-29T19:22:04.894Z,102176.75
2023-05-29T19:24:31.616Z,102193.09
2023-05-29T19:26:58.316Z,102220.81
2023-05-29T19:29:25.041Z,102188.84
2023-05-29T19:31:51.711Z,102228.34
2023-05-29T19:34:18.630Z,102180.78
2023-05-29T19:36:45.523Z,102233.94
2023-05-29T19:39:12.533Z,102239.63
2023-05-29T19:41:41.681Z,102244.34
2023-05-29T19:44:09.215Z,102244.03
2023-05-29T19:46:39.875Z,102243.78
2023-05-29T19:49:06.793Z,102246.00
2023-05-29T19:51:34.217Z,102244.88
2023-05-29T19:54:01.283Z,102236.47
2023-05-29T19:56:28.463Z,102242.19
2023-05-29T19:58:55.298Z,102240.03
2023-05-29T20:01:22.314Z,102244.28
2023-05-29T20:03:49.200Z,102250.84
2023-05-29T20:06:16.065Z,102250.91
2023-05-29T20:08:42.678Z,102249.34
2023-05-29T20:11:09.334Z,102250.66
2023-05-29T20:13:35.953Z,102259.16
2023-05-29T20:16:02.732Z,102228.34
2023-05-29T20:18:29.363Z,102239.47
2023-05-29T20:20:56.211Z,102256.22
2023-05-29T20:23:23.555Z,102260.00
2023-05-29T20:25:51.166Z,102267.81
2023-05-29T20:28:18.012Z,102248.06
2023-05-29T20:30:44.686Z,102273.00
2023-05-29T20:33:14.114Z,102248.94
2023-05-29T20:35:42.614Z,102242.66
2023-05-29T20:38:09.222Z,102273.28
2023-05-29T20:40:37.228Z,102280.00
2023-05-29T20:43:07.076Z,102247.38
2023-05-29T20:45:34.285Z,102263.88
2023-05-29T20:48:00.784Z,102274.00
2023-05-29T20:50:27.621Z,102277.59
2023-05-29T20:52:54.189Z,102275.50
2023-05-29T20:55:21.036Z,102249.03
2023-05-29T20:57:47.679Z,102261.28
2023-05-29T21:00:14.584Z,102269.19
2023-05-29T21:02:41.390Z,102298.97
2023-05-29T21:05:09.402Z,102292.03
2023-05-29T21:07:36.969Z,102292.19
2023-05-29T21:10:08.071Z,102286.84
2023-05-29T21:12:35.987Z,102294.06
2023-05-29T21:15:03.674Z,102277.41
2023-05-29T21:17:32.872Z,102291.47
2023-05-29T21:20:02.592Z,102298.00
2023-05-29T21:22:30.549Z,102297.19
2023-05-29T21:25:00.527Z,102290.34
2023-05-29T21:27:28.229Z,102295.47
2023-05-29T21:29:58.585Z,102270.44
2023-05-29T21:32:27.426Z,102298.00
2023-05-29T21:34:54.987Z,102295.63
2023-05-29T21:37:23.795Z,102293.38
2023-05-29T21:39:51.334Z,102298.19
2023-05-29T21:42:18.552Z,102269.88
2023-05-29T21:44:45.315Z,102290.28
2023-05-29T21:47:12.387Z,102276.34
2023-05-29T21:49:39.328Z,102277.13
2023-05-29T21:52:06.328Z,102273.72
2023-05-29T21:54:33.125Z,102258.72
2023-05-29T21:56:59.841Z,102274.19
2023-05-29T21:59:26.412Z,102285.03
2023-05-29T22:01:53.255Z,102298.44
2023-05-29T22:04:22.834Z,102285.94
2023-05-29T22:06:49.618Z,102262.56
2023-05-29T22:09:16.598Z,102281.56
2023-05-29T22:11:44.400Z,102300.44
2023-05-29T22:14:11.212Z,102295.19
2023-05-29T22:16:37.988Z,102298.66
2023-05-29T22:19:06.621Z,102285.47
2023-05-29T22:21:36.913Z,102275.84
2023-05-29T22:24:04.449Z,102280.75
2023-05-29T22:26:32.166Z,102306.28
2023-05-29T22:28:58.888Z,102295.13
2023-05-29T22:31:25.844Z,102302.22
2023-05-29T22:33:52.529Z,102309.25
2023-05-29T22:36:21.835Z,102314.38
2023-05-29T22:38:48.808Z,102282.34
2023-05-29T22:41:15.487Z,102286.53
2023-05-29T22:43:42.876Z,102309.72
2023-05-29T22:46:09.833Z,102303.06
2023-05-29T22:48:37.621Z,102311.22
2023-05-29T22:51:05.539Z,102311.13
2023-05-29T22:53:34.030Z,102315.75
2023-05-29T22:56:01.511Z,102305.28
2023-05-29T22:58:28.146Z,102312.69
2023-05-29T23:00:54.928Z,102313.31
2023-05-29T23:03:22.031Z,102273.22
2023-05-29T23:05:49.948Z,102300.91
2023-05-29T23:08:16.766Z,102300.53
2023-05-29T23:10:43.648Z,102294.19
2023-05-29T23:13:11.864Z,102287.00
2023-05-29T23:15:38.856Z,102300.72
2023-05-29T23:18:05.789Z,102285.31
2023-05-29T23:20:32.443Z,102299.53
2023-05-29T23:22:59.075Z,102308.41
2023-05-29T23:25:25.656Z,102297.13
2023-05-29T23:27:52.316Z,102301.75
2023-05-29T23:30:18.958Z,102305.47
2023-05-29T23:32:45.755Z,102269.59
2023-05-29T23:35:12.823Z,102301.19
2023-05-29T23:37:39.562Z,102287.50
2023-05-29T23:40:06.898Z,102306.00
2023-05-29T23:42:34.902Z,102309.59
2023-05-29T23:45:01.999Z,102307.31
2023-05-29T23:47:28.589Z,102298.47
2023-05-29T23:49:55.128Z,102308.19
2023-05-29T23:52:22.706Z,102290.53
2023-05-29T23:54:49.391Z,102293.25
2023-05-29T23:57:16.064Z,102278.44
2023-05-29T23:59:42.676Z,102308.34
